Time;durP1;ratioP1;P1;durP2;ratioP2;P2;SDS_P1;SDS_P2;PMS_P1;PMS_P2;Temp;Humidity;BMP_temperature;BMP_pressure;BME280_temperature;BME280_humidity;BME280_pressure;Samples;Min_cycle;Max_cycle;Signal;HPM_P1;HPM_P2
2021/05/21 00:01:56;;;;;;;5.23;1.20;;;;;;;11.71;60.94;100130.66;5069581;28;20210;-66
2021/05/21 00:04:26;;;;;;;1.40;1.10;;;;;;;11.70;61.58;100133.47;5068141;28;20637;-65
2021/05/21 00:06:54;;;;;;;4.90;1.37;;;;;;;11.65;61.65;100141.06;5069580;28;20295;-65
2021/05/21 00:09:21;;;;;;;3.63;1.30;;;;;;;11.60;61.09;100130.66;5070603;28;20289;-66
2021/05/21 00:11:50;;;;;;;1.33;0.90;;;;;;;11.54;61.45;100133.00;5071193;28;20228;-66
2021/05/21 00:14:18;;;;;;;3.00;1.30;;;;;;;11.39;61.59;100114.47;5068242;28;20664;-66
2021/05/21 00:16:46;;;;;;;1.40;0.93;;;;;;;11.40;61.45;100123.41;5073623;28;20196;-66
2021/05/21 00:19:14;;;;;;;1.67;1.03;;;;;;;11.45;61.16;100130.09;5068676;28;20190;-74
2021/05/21 00:21:41;;;;;;;5.50;1.00;;;;;;;11.36;61.94;100130.00;5064045;28;20217;-66
2021/05/21 00:24:09;;;;;;;6.80;1.17;;;;;;;11.25;61.80;100112.03;5064039;28;20210;-66
2021/05/21 00:26:37;;;;;;;1.93;1.10;;;;;;;11.28;61.85;100135.13;5067504;28;20189;-67
2021/05/21 00:29:07;;;;;;;457.63;301.53;;;;;;;11.22;61.99;100125.72;5070737;28;20739;-66
2021/05/21 00:31:34;;;;;;;222.23;115.23;;;;;;;11.19;62.29;100121.44;5069300;28;20196;-66
2021/05/21 00:34:02;;;;;;;17.97;8.70;;;;;;;11.14;62.34;100120.13;5102608;28;20750;-66
2021/05/21 00:36:30;;;;;;;14.63;8.93;;;;;;;11.11;62.48;100109.63;5067181;28;20297;-75
2021/05/21 00:38:57;;;;;;;7.93;4.97;;;;;;;11.11;62.29;100123.91;5068717;28;20198;-75
2021/05/21 00:41:26;;;;;;;6.30;2.67;;;;;;;11.13;62.33;100108.50;5068956;28;20205;-74
2021/05/21 00:43:56;;;;;;;5.30;1.80;;;;;;;11.08;62.65;100115.25;5103451;27;20212;-74
2021/05/21 00:46:25;;;;;;;6.00;2.30;;;;;;;11.10;62.42;100115.97;5068157;28;20193;-74
2021/05/21 00:48:52;;;;;;;6.57;1.53;;;;;;;11.07;63.23;100114.38;5065798;28;20201;-74
2021/05/21 00:51:20;;;;;;;4.47;1.50;;;;;;;11.02;63.32;100104.94;5068341;28;20197;-75
2021/05/21 00:53:50;;;;;;;6.47;1.63;;;;;;;10.97;63.12;100113.38;5066983;28;20228;-74
2021/05/21 00:56:18;;;;;;;4.33;1.30;;;;;;;10.96;63.64;100102.75;5067780;28;20691;-74
2021/05/21 00:58:46;;;;;;;5.93;3.90;;;;;;;11.00;63.35;100105.06;5069413;28;20230;-75
2021/05/21 01:01:16;;;;;;;3.27;1.20;;;;;;;10.99;63.13;100099.81;5068365;28;20252;-74
2021/05/21 01:03:45;;;;;;;6.87;2.40;;;;;;;11.01;62.77;100104.09;5067831;28;20289;-74
2021/05/21 01:06:13;;;;;;;2.13;1.20;;;;;;;11.03;62.71;100101.31;5068223;28;20225;-74
2021/05/21 01:08:41;;;;;;;7.20;1.53;;;;;;;11.03;62.46;100091.44;5067830;28;20197;-74
2021/05/21 01:11:09;;;;;;;1.97;1.10;;;;;;;11.07;62.88;100094.72;5069540;28;20279;-75
2021/05/21 01:13:37;;;;;;;2.07;1.10;;;;;;;11.07;62.71;100092.03;5067795;28;20237;-74
2021/05/21 01:16:05;;;;;;;1.70;1.20;;;;;;;11.07;62.43;100092.88;5068237;28;20198;-74
2021/05/21 01:18:33;;;;;;;1.37;0.90;;;;;;;11.05;62.51;100091.31;5068038;28;20656;-74
2021/05/21 01:21:01;;;;;;;3.77;1.20;;;;;;;11.04;62.59;100094.97;5068169;28;20287;-74
2021/05/21 01:23:29;;;;;;;1.87;1.07;;;;;;;11.03;62.58;100101.31;5074509;28;20197;-75
2021/05/21 01:25:57;;;;;;;3.50;1.20;;;;;;;10.62;62.05;100032.94;5069390;28;20201;-75
2021/05/21 01:28:25;;;;;;;4.27;0.93;;;;;;;11.01;62.13;100104.09;5067449;28;20655;-74
2021/05/21 01:30:53;;;;;;;1.50;1.27;;;;;;;10.97;61.87;100093.72;5064638;28;20202;-74
2021/05/21 01:33:22;;;;;;;7.87;1.50;;;;;;;10.99;61.83;100095.31;5067930;28;20220;-74
2021/05/21 01:35:50;;;;;;;10.73;1.00;;;;;;;10.98;61.72;100090.06;5070467;28;20213;-75
2021/05/21 01:38:18;;;;;;;4.70;1.30;;;;;;;10.85;61.90;100074.94;5066508;28;20208;-74
2021/05/21 01:40:46;;;;;;;4.70;1.37;;;;;;;10.89;61.81;100088.97;5068063;28;20204;-74
2021/05/21 01:43:14;;;;;;;4.23;1.10;;;;;;;10.88;62.48;100082.75;5069068;28;20199;-75
2021/05/21 01:45:42;;;;;;;3.87;1.13;;;;;;;10.82;62.00;100083.25;5063830;28;20205;-75
2021/05/21 01:48:12;;;;;;;2.47;1.33;;;;;;;10.77;63.22;100085.44;5064036;28;20292;-74
2021/05/21 01:50:40;;;;;;;7.47;1.13;;;;;;;10.77;62.25;100080.06;5067180;28;20683;-74
2021/05/21 01:53:08;;;;;;;8.50;1.33;;;;;;;10.78;62.68;100086.28;5067202;28;20213;-75
2021/05/21 01:55:37;;;;;;;3.70;1.03;;;;;;;10.78;62.02;100079.09;5066464;28;20567;-75
2021/05/21 01:58:04;;;;;;;7.53;1.30;;;;;;;10.78;62.67;100084.47;5067959;28;20219;-74
2021/05/21 02:00:32;;;;;;;3.33;1.00;;;;;;;10.64;62.55;100057.81;5066600;28;20208;-75
2021/05/21 02:03:00;;;;;;;2.37;1.10;;;;;;;10.79;61.85;100079.94;5068301;28;20275;-75
2021/05/21 02:05:28;;;;;;;3.63;0.90;;;;;;;10.74;61.94;100066.03;5069270;28;20740;-74
2021/05/21 02:07:55;;;;;;;4.90;1.13;;;;;;;10.80;61.86;100081.66;5065579;28;20540;-75
2021/05/21 02:10:23;;;;;;;7.43;1.30;;;;;;;10.80;62.14;100078.97;5069600;28;20291;-74
2021/05/21 02:12:52;;;;;;;4.37;1.53;;;;;;;10.76;61.81;100086.41;5066212;28;20313;-74
2021/05/21 02:15:19;;;;;;;4.23;0.97;;;;;;;10.75;62.30;100081.16;5068779;28;20724;-75
2021/05/21 02:17:47;;;;;;;0.83;0.70;;;;;;;10.77;62.35;100073.84;5069743;28;20672;-76
2021/05/21 02:20:15;;;;;;;4.83;1.10;;;;;;;10.72;62.39;100065.31;5071963;28;20189;-75
2021/05/21 02:22:42;;;;;;;8.23;1.60;;;;;;;10.75;62.57;100070.44;5071653;28;20952;-75
2021/05/21 02:25:11;;;;;;;4.10;1.20;;;;;;;10.73;62.55;100065.19;5070235;28;20288;-74
2021/05/21 02:27:39;;;;;;;5.87;1.10;;;;;;;10.75;61.77;100070.44;5074514;28;20577;-75
2021/05/21 02:30:10;;;;;;;5.63;1.27;;;;;;;10.74;61.84;100066.88;5069860;28;20571;-74
2021/05/21 02:32:38;;;;;;;6.87;1.10;;;;;;;10.76;61.75;100061.38;5069404;28;20219;-75
2021/05/21 02:35:07;;;;;;;3.90;1.00;;;;;;;10.76;61.75;100056.88;5069272;28;20228;-75
2021/05/21 02:37:35;;;;;;;2.90;1.20;;;;;;;10.76;61.46;100056.03;5070255;28;20276;-74
2021/05/21 02:40:05;;;;;;;3.80;1.00;;;;;;;10.80;62.15;100052.97;5069088;28;20197;-75
2021/05/21 02:42:33;;;;;;;1.53;0.97;;;;;;;10.82;61.93;100053.69;5066762;28;20198;-74
2021/05/21 02:45:00;;;;;;;5.07;1.20;;;;;;;10.80;62.09;100049.44;5072589;28;20645;-75
2021/05/21 02:47:31;;;;;;;27.37;16.50;;;;;;;10.75;61.80;100047.13;5071221;28;20236;-74
2021/05/21 02:49:59;;;;;;;13.83;4.37;;;;;;;10.70;62.12;100051.97;5069414;28;20208;-74
2021/05/21 02:52:27;;;;;;;6.23;1.30;;;;;;;10.70;62.81;100054.66;5072269;28;20217;-75
2021/05/21 02:54:56;;;;;;;6.07;3.37;;;;;;;10.71;62.55;100050.13;5070605;28;20258;-74
2021/05/21 02:57:24;;;;;;;9.37;2.07;;;;;;;10.75;62.44;100055.16;5070055;28;20201;-74
2021/05/21 02:59:53;;;;;;;4.90;1.10;;;;;;;10.83;62.10;100047.34;5071538;28;20276;-74
2021/05/21 03:02:22;;;;;;;3.00;1.87;;;;;;;10.61;62.32;100000.84;5066091;28;20202;-74
2021/05/21 03:04:53;;;;;;;8.60;1.90;;;;;;;10.80;62.66;100022.56;5074724;28;20283;-74
2021/05/21 03:07:21;;;;;;;8.47;3.93;;;;;;;10.95;62.17;100031.22;5068120;28;20680;-74
2021/05/21 03:09:49;;;;;;;4.13;1.30;;;;;;;10.71;61.84;99991.91;5071864;28;20244;-74
2021/05/21 03:12:17;;;;;;;5.07;1.30;;;;;;;11.01;61.55;100036.06;5070595;28;20234;-74
2021/05/21 03:14:45;;;;;;;4.90;1.30;;;;;;;10.99;62.06;100032.66;5068016;28;20276;-74
2021/05/21 03:17:12;;;;;;;1.63;1.07;;;;;;;10.98;61.54;100022.91;5069737;28;20752;-73
2021/05/21 03:19:40;;;;;;;5.43;1.30;;;;;;;11.04;62.00;100038.53;5068633;28;20212;-74
2021/05/21 03:22:09;;;;;;;4.53;1.20;;;;;;;11.01;61.41;100034.25;5069553;28;20198;-74
2021/05/21 03:24:37;;;;;;;5.43;1.30;;;;;;;11.05;61.82;100030.34;5067460;28;20206;-74
2021/05/21 03:27:05;;;;;;;7.70;1.47;;;;;;;11.08;61.95;100030.09;5069800;28;20204;-73
2021/05/21 03:29:33;;;;;;;6.13;1.53;;;;;;;11.12;61.88;100030.72;5069322;28;20221;-74
2021/05/21 03:32:01;;;;;;;4.83;1.13;;;;;;;11.14;61.57;100024.22;5069198;28;20201;-74
2021/05/21 03:34:28;;;;;;;5.13;1.17;;;;;;;11.19;61.19;100037.28;5068163;28;20710;-74
2021/05/21 03:36:56;;;;;;;11.83;2.00;;;;;;;11.18;61.63;100030.19;5064784;28;20224;-74
2021/05/21 03:39:24;;;;;;;6.50;1.10;;;;;;;11.30;61.53;100023.81;5070427;28;20202;-74
2021/05/21 03:41:52;;;;;;;11.17;0.97;;;;;;;11.50;61.44;100027.53;5075971;28;20286;-74
2021/05/21 03:44:19;;;;;;;5.63;1.47;;;;;;;11.68;60.90;100023.31;5071786;28;20880;-74
2021/05/21 03:46:47;;;;;;;4.10;0.93;;;;;;;11.89;60.68;100014.44;5069394;28;20647;-74
2021/05/21 03:49:16;;;;;;;4.03;1.07;;;;;;;12.07;59.94;100029.88;5072730;28;20191;-74
2021/05/21 03:51:44;;;;;;;9.57;1.40;;;;;;;11.82;59.95;99969.22;5071541;28;20192;-74
2021/05/21 03:54:12;;;;;;;3.97;1.00;;;;;;;12.29;60.30;100031.59;5069519;28;20225;-74
2021/05/21 03:56:40;;;;;;;8.33;1.10;;;;;;;12.37;60.06;100025.53;5077258;28;20557;-74
2021/05/21 03:59:08;;;;;;;11.13;1.43;;;;;;;12.48;58.86;100025.44;5079174;28;20209;-74
2021/05/21 04:01:37;;;;;;;6.47;1.10;;;;;;;12.56;58.58;100025.66;5073151;28;20229;-74
2021/05/21 04:04:05;;;;;;;3.50;1.00;;;;;;;12.59;59.04;100011.06;5069847;28;20200;-74
2021/05/21 04:06:33;;;;;;;2.03;1.07;;;;;;;12.68;59.06;100023.69;5067510;28;20214;-74
2021/05/21 04:09:06;;;;;;;1.50;1.00;;;;;;;12.78;58.12;100013.81;5063828;28;20655;-75
2021/05/21 04:11:33;;;;;;;3.37;1.00;;;;;;;12.75;58.14;100012.25;5069638;28;20261;-74
2021/05/21 04:14:03;;;;;;;5.13;0.80;;;;;;;12.80;57.79;100011.81;5065131;28;20709;-73
2021/05/21 04:16:30;;;;;;;3.03;0.90;;;;;;;12.78;57.63;100007.56;5066914;28;20376;-74
2021/05/21 04:18:59;;;;;;;3.47;1.20;;;;;;;12.72;58.52;100008.97;5077817;28;21018;-73
2021/05/21 04:21:29;;;;;;;4.00;1.10;;;;;;;12.73;58.58;100011.53;5069784;28;20194;-75
2021/05/21 04:23:57;;;;;;;2.03;0.90;;;;;;;12.70;58.80;100003.72;5068185;28;20212;-73
2021/05/21 04:26:26;;;;;;;3.67;0.80;;;;;;;12.64;58.94;100003.41;5069253;28;20200;-74
2021/05/21 04:28:54;;;;;;;11.63;1.27;;;;;;;12.65;58.53;100003.28;5070754;28;20211;-73
2021/05/21 04:31:22;;;;;;;8.23;1.10;;;;;;;12.63;58.03;99999.88;5071259;28;20203;-74
2021/05/21 04:33:50;;;;;;;11.03;1.20;;;;;;;12.71;57.91;100001.88;5069290;28;20606;-72
2021/05/21 04:36:20;;;;;;;3.80;1.17;;;;;;;12.70;57.41;99992.09;5066351;28;20617;-74
2021/05/21 04:38:48;;;;;;;1.40;0.90;;;;;;;12.74;57.72;100002.44;5065701;28;20200;-72
2021/05/21 04:41:16;;;;;;;7.70;1.30;;;;;;;12.68;57.99;99989.53;5070348;28;20206;-74
2021/05/21 04:43:45;;;;;;;3.00;1.10;;;;;;;12.78;57.71;99994.09;5063723;28;20215;-74
2021/05/21 04:46:13;;;;;;;2.97;0.90;;;;;;;12.79;58.36;99982.31;5058341;28;20602;-74
2021/05/21 04:48:42;;;;;;;4.30;0.90;;;;;;;12.62;57.50;99970.38;5059196;28;20371;-75
2021/05/21 04:51:10;;;;;;;4.53;1.13;;;;;;;12.55;59.24;99986.22;5061682;28;20209;-74
2021/05/21 04:53:40;;;;;;;5.60;1.00;;;;;;;12.69;58.47;99987.69;5050968;28;20421;-75
2021/05/21 04:56:08;;;;;;;3.90;0.80;;;;;;;12.77;58.24;99997.78;5072366;28;20228;-75
2021/05/21 04:58:36;;;;;;;3.87;0.87;;;;;;;12.38;58.84;99951.84;5073116;28;20200;-75
2021/05/21 05:01:04;;;;;;;5.23;0.87;;;;;;;12.82;58.26;99982.91;5079095;28;20199;-75
2021/05/21 05:03:32;;;;;;;3.73;1.03;;;;;;;12.92;58.34;99986.50;5076706;28;20198;-74
2021/05/21 05:06:01;;;;;;;6.13;1.23;;;;;;;13.08;57.68;99977.88;5071947;28;20254;-74
2021/05/21 05:08:28;;;;;;;5.97;1.20;;;;;;;12.97;57.86;99949.19;5072257;28;20220;-74
2021/05/21 05:10:56;;;;;;;2.90;0.90;;;;;;;13.25;57.56;99985.31;5077993;28;20207;-75
2021/05/21 05:13:23;;;;;;;6.63;1.10;;;;;;;13.28;57.32;99985.03;5064145;28;20236;-75
2021/05/21 05:15:51;;;;;;;4.07;1.47;;;;;;;13.12;57.78;99955.03;5063927;28;20560;-75
2021/05/21 05:18:19;;;;;;;3.70;0.90;;;;;;;13.40;57.60;99976.81;5065522;28;20566;-75
2021/05/21 05:20:47;;;;;;;1277.03;717.47;;;;;;;13.36;57.71;99982.50;5068247;28;20255;-75
2021/05/21 05:23:17;;;;;;;17.97;11.33;;;;;;;13.37;57.76;99977.94;5067848;28;20227;-75
2021/05/21 05:25:53;;;;;;;9.47;2.57;;;;;;;13.39;56.87;99921.16;5062882;28;20201;-74
2021/05/21 05:28:21;;;;;;;3.93;1.47;;;;;;;13.82;56.58;99967.44;5070057;28;20727;-75
2021/05/21 05:30:48;;;;;;;4.73;1.60;;;;;;;14.28;55.64;99972.03;5064723;28;20197;-75
2021/05/21 05:33:16;;;;;;;5.30;1.30;;;;;;;14.37;55.72;99966.72;5065746;28;20213;-75
2021/05/21 05:35:44;;;;;;;3.70;1.10;;;;;;;14.41;55.08;99960.91;5072056;28;20605;-75
2021/05/21 05:38:12;;;;;;;1.47;0.97;;;;;;;14.53;55.26;99946.22;5066817;28;20204;-74
2021/05/21 05:40:42;;;;;;;7.40;1.60;;;;;;;14.85;56.18;99959.31;5059876;28;20205;-73
2021/05/21 05:43:10;;;;;;;3.40;0.90;;;;;;;15.02;55.08;99956.81;5064310;28;20690;-74
2021/05/21 05:45:38;;;;;;;0.97;0.90;;;;;;;15.39;52.85;99946.72;5066673;28;20201;-74
2021/05/21 05:48:06;;;;;;;4.93;2.33;;;;;;;15.58;53.25;99953.84;5063351;28;20201;-74
2021/05/21 05:50:33;;;;;;;8.03;1.37;;;;;;;15.62;53.69;99955.25;5071087;28;20199;-75
2021/05/21 05:53:01;;;;;;;3.37;0.87;;;;;;;15.81;52.44;99952.34;5077399;28;20390;-75
2021/05/21 05:55:33;;;;;;;3.57;1.40;;;;;;;15.99;53.13;99951.47;5078026;28;20224;-75
2021/05/21 05:58:01;;;;;;;3.13;1.40;;;;;;;16.19;52.34;99952.94;5067546;28;20193;-75
2021/05/21 06:00:29;;;;;;;5.83;1.40;;;;;;;15.98;51.93;99949.78;5066692;28;20284;-68
2021/05/21 06:03:03;;;;;;;2.70;1.77;;;;;;;16.13;51.39;99948.16;5076687;28;20192;-69
2021/05/21 06:05:32;;;;;;;5.93;2.17;;;;;;;16.03;51.77;99944.72;5075310;28;20200;-67
2021/05/21 06:08:01;;;;;;;3.07;2.00;;;;;;;16.09;51.52;99942.22;5067812;28;20287;-68
2021/05/21 06:10:30;;;;;;;4.93;2.07;;;;;;;16.34;51.79;99939.69;5066467;28;20770;-68
2021/05/21 06:13:03;;;;;;;3.47;2.40;;;;;;;16.53;50.42;99911.47;5068640;28;20244;-68
2021/05/21 06:15:32;;;;;;;4.23;2.40;;;;;;;16.77;50.58;99930.56;5072042;28;20282;-68
2021/05/21 06:18:00;;;;;;;4.23;2.17;;;;;;;16.80;50.37;99930.25;5069269;28;20753;-68
2021/05/21 06:20:29;;;;;;;10.73;2.10;;;;;;;16.94;50.25;99926.91;5066498;28;20674;-68
2021/05/21 06:22:57;;;;;;;7.03;2.47;;;;;;;17.32;50.35;99927.34;5065256;28;20204;-68
2021/05/21 06:25:38;;;;;;;5.40;1.60;;;;;;;17.06;48.65;99924.72;5065429;28;20189;-68
2021/05/21 06:28:08;;;;;;;2.17;1.80;;;;;;;17.05;49.24;99913.03;5064010;28;20258;-68
2021/05/21 06:30:38;;;;;;;4.40;1.60;;;;;;;17.43;49.82;99920.72;5064557;28;20198;-68
2021/05/21 06:33:05;;;;;;;5.63;2.20;;;;;;;17.72;49.35;99920.25;5063884;28;20204;-68
2021/05/21 06:35:34;;;;;;;6.90;3.03;;;;;;;17.83;47.27;99898.19;5064563;28;20227;-68
2021/05/21 06:38:03;;;;;;;4.60;2.60;;;;;;;18.13;47.66;99912.94;5065573;28;20203;-68
2021/05/21 06:40:33;;;;;;;3.97;2.83;;;;;;;18.49;46.08;99910.63;5066058;28;20198;-69
2021/05/21 06:43:08;;;;;;;8.37;3.20;;;;;;;18.76;45.73;99910.19;5065110;28;20201;-69
2021/05/21 06:45:37;;;;;;;6.90;4.03;;;;;;;18.98;44.79;99902.25;5069035;28;20184;-68
2021/05/21 06:48:05;;;;;;;5.23;2.00;;;;;;;18.95;45.09;99905.31;5068718;28;20567;-68
2021/05/21 06:50:33;;;;;;;5.10;1.00;;;;;;;18.98;45.89;99907.69;5068339;28;20250;-68
2021/05/21 06:53:04;;;;;;;4.93;1.33;;;;;;;18.78;44.97;99908.13;5065622;28;20232;-68
2021/05/21 06:55:32;;;;;;;5.43;1.30;;;;;;;19.13;45.79;99911.34;5069772;28;20221;-68
2021/05/21 06:58:00;;;;;;;4.90;1.47;;;;;;;19.47;45.98;99908.22;5069891;28;20204;-68
2021/05/21 07:00:28;;;;;;;2.33;1.70;;;;;;;19.64;44.85;99903.53;5067497;28;20193;-69
2021/05/21 07:02:56;;;;;;;4.13;2.50;;;;;;;19.94;44.28;99905.31;5068171;28;20231;-68
2021/05/21 07:05:23;;;;;;;4.40;2.00;;;;;;;20.24;44.04;99894.44;5066850;28;20276;-69
2021/05/21 07:07:51;;;;;;;5.63;1.87;;;;;;;20.31;43.06;99895.38;5069171;28;20538;-69
2021/05/21 07:10:19;;;;;;;7.43;3.00;;;;;;;20.68;41.34;99880.78;5070369;28;20201;-69
2021/05/21 07:12:46;;;;;;;2.10;1.90;;;;;;;20.89;42.08;99894.50;5070082;28;20229;-68
2021/05/21 07:15:14;;;;;;;2.53;1.47;;;;;;;20.85;41.93;99892.34;5070032;28;20229;-75
2021/05/21 07:17:43;;;;;;;4.90;1.60;;;;;;;21.14;41.93;99892.28;5070477;28;20771;-75
2021/05/21 07:20:12;;;;;;;4.33;1.80;;;;;;;21.28;41.67;99890.56;5065614;28;20198;-75
2021/05/21 07:22:40;;;;;;;3.70;1.80;;;;;;;21.52;41.62;99898.38;5068684;28;20212;-75
2021/05/21 07:25:08;;;;;;;3.07;1.87;;;;;;;21.82;40.61;99887.28;5066998;28;20203;-75
2021/05/21 07:27:37;;;;;;;2.90;1.73;;;;;;;21.68;40.55;99878.09;5068720;28;20664;-75
2021/05/21 07:30:06;;;;;;;9.20;2.23;;;;;;;22.05;40.11;99890.66;5064367;28;20224;-75
2021/05/21 07:32:34;;;;;;;3.40;1.40;;;;;;;22.29;39.37;99886.59;5054856;28;20206;-75
2021/05/21 07:35:03;;;;;;;8.83;1.97;;;;;;;22.32;39.38;99888.91;5067532;28;20216;-75
2021/05/21 07:37:31;;;;;;;5.47;1.60;;;;;;;22.57;38.17;99884.66;5055960;28;20680;-75
2021/05/21 07:39:59;;;;;;;3.20;1.60;;;;;;;22.53;38.39;99883.38;5067602;28;20660;-75
2021/05/21 07:42:26;;;;;;;4.10;1.70;;;;;;;22.66;38.32;99889.97;5056076;28;20221;-75
2021/05/21 07:44:55;;;;;;;4.33;2.10;;;;;;;22.84;38.02;99884.81;5066005;28;20190;-75
2021/05/21 07:47:22;;;;;;;2.40;1.87;;;;;;;22.84;37.76;99884.81;5063548;28;20711;-74
2021/05/21 07:49:51;;;;;;;3.50;1.50;;;;;;;22.96;37.69;99877.69;5066432;28;20224;-74
2021/05/21 07:52:19;;;;;;;2.17;1.40;;;;;;;22.89;37.34;99882.28;5062868;28;20651;-75
2021/05/21 07:54:47;;;;;;;1.70;1.60;;;;;;;22.99;37.08;99887.41;5061562;28;20699;-75
2021/05/21 07:57:15;;;;;;;2.00;1.30;;;;;;;23.19;37.11;99877.31;5061821;28;20201;-75
2021/05/21 07:59:43;;;;;;;6.00;1.40;;;;;;;23.20;36.92;99877.13;5065812;28;20193;-75
2021/05/21 08:02:11;;;;;;;2.63;1.07;;;;;;;22.96;37.80;99887.78;5061928;28;20197;-75
2021/05/21 08:04:38;;;;;;;1.23;1.00;;;;;;;22.82;37.59;99881.41;5067654;28;20193;-74
2021/05/21 08:07:06;;;;;;;2.47;1.10;;;;;;;22.43;38.61;99882.91;5062997;28;20201;-74
2021/05/21 08:09:37;;;;;;;2.80;1.10;;;;;;;22.68;37.62;99885.13;5066142;28;20667;-75
2021/05/21 08:12:07;;;;;;;1.80;1.00;;;;;;;23.01;36.82;99875.19;5066881;28;20470;-74
2021/05/21 08:14:34;;;;;;;3.17;1.40;;;;;;;22.99;36.99;99888.25;5065688;28;20731;-75
2021/05/21 08:17:02;;;;;;;4.73;1.60;;;;;;;23.20;36.17;99879.00;5067122;28;20684;-68
2021/05/21 08:19:42;;;;;;;1.57;1.20;;;;;;;23.21;36.71;99887.03;5065044;28;20764;-68
2021/05/21 08:22:10;;;;;;;5.17;1.23;;;;;;;23.20;36.36;99885.34;5062253;28;20205;-68
2021/05/21 08:24:39;;;;;;;1.67;1.00;;;;;;;23.07;37.17;99881.72;5064834;28;20201;-68
2021/05/21 08:27:06;;;;;;;6.30;1.20;;;;;;;23.14;36.83;99879.84;5064918;28;20516;-68
2021/05/21 08:29:34;;;;;;;5.57;1.30;;;;;;;23.24;36.78;99861.09;5065418;28;20197;-68
2021/05/21 08:32:03;;;;;;;4.60;0.97;;;;;;;23.42;36.65;99876.94;5063988;28;20680;-67
2021/05/21 08:34:30;;;;;;;3.93;1.30;;;;;;;23.39;36.49;99878.22;5064588;28;20220;-68
2021/05/21 08:36:58;;;;;;;2.63;1.13;;;;;;;23.49;36.50;99862.19;5064729;28;20228;-67
2021/05/21 08:39:26;;;;;;;2.10;0.93;;;;;;;23.41;36.76;99878.00;5072448;28;20202;-66
2021/05/21 08:41:58;;;;;;;1.17;1.00;;;;;;;23.55;36.73;99871.47;5066293;28;20200;-66
2021/05/21 08:44:27;;;;;;;0.90;0.90;;;;;;;23.40;36.97;99868.09;5079172;28;20577;-66
2021/05/21 08:46:54;;;;;;;3.23;0.97;;;;;;;23.49;36.54;99834.78;5062977;28;20275;-66
2021/05/21 08:49:23;;;;;;;1.97;0.83;;;;;;;23.86;35.99;99862.66;5066308;28;20296;-67
2021/05/21 08:51:51;;;;;;;2.73;1.30;;;;;;;23.77;35.93;99866.66;5068889;28;20203;-66
2021/05/21 08:54:33;;;;;;;3.00;1.10;;;;;;;23.80;35.94;99820.47;5067878;28;20638;-66
2021/05/21 08:57:06;;;;;;;5.60;1.00;;;;;;;24.00;36.00;99858.84;5064688;28;20193;-67
2021/05/21 08:59:33;;;;;;;9.20;1.23;;;;;;;24.39;35.60;99862.59;5069143;28;20292;-67
2021/05/21 09:02:02;;;;;;;3.83;1.17;;;;;;;24.33;35.02;99861.56;5068949;28;20523;-68
2021/05/21 09:04:47;;;;;;;5.17;1.70;;;;;;;24.57;33.51;99860.03;5069207;28;20549;-67
2021/05/21 09:07:19;;;;;;;1.37;1.00;;;;;;;24.33;35.29;99836.88;5068404;28;20221;-66
2021/05/21 09:09:47;;;;;;;2.13;1.03;;;;;;;24.71;35.21;99871.78;5062870;28;20288;-67
2021/05/21 09:12:17;;;;;;;0.90;0.90;;;;;;;24.77;34.10;99860.75;5067898;28;20208;-66
2021/05/21 09:15:06;;;;;;;3.97;1.30;;;;;;;25.03;34.22;99861.75;5066753;28;20260;-66
2021/05/21 09:17:34;;;;;;;4.80;1.10;;;;;;;24.70;34.72;99859.13;5062853;28;20289;-66
2021/05/21 09:20:04;;;;;;;2.53;0.90;;;;;;;24.60;34.41;99865.06;5067078;28;20244;-67
2021/05/21 09:23:03;;;;;;;1.77;1.10;;;;;;;24.95;34.36;99850.97;5068173;28;20256;-67
2021/05/21 09:25:42;;;;;;;1.47;0.97;;;;;;;25.14;34.11;99849.22;5068387;28;20602;-67
2021/05/21 09:28:35;;;;;;;3.10;1.20;;;;;;;25.17;32.11;99852.38;5064439;28;20200;-67
2021/05/21 09:31:08;;;;;;;2.30;0.97;;;;;;;24.92;33.48;99841.28;5066134;28;20251;-67
2021/05/21 09:33:37;;;;;;;3.17;1.20;;;;;;;24.55;34.18;99842.09;5068318;28;20225;-67
2021/05/21 09:36:06;;;;;;;2.47;0.90;;;;;;;24.93;33.77;99837.47;5068112;28;20311;-67
2021/05/21 09:38:44;;;;;;;3.97;1.10;;;;;;;25.07;33.56;99830.84;5077585;28;20780;-67
2021/05/21 09:41:12;;;;;;;1.27;0.90;;;;;;;24.92;34.36;99796.47;5067835;28;20203;-67
2021/05/21 09:43:40;;;;;;;2.00;1.07;;;;;;;25.34;34.16;99830.66;5065628;28;20529;-68
2021/05/21 09:46:09;;;;;;;1.70;0.90;;;;;;;25.03;31.93;99826.84;5067966;28;20208;-68
2021/05/21 09:48:37;;;;;;;1.63;1.00;;;;;;;25.31;33.91;99825.63;5068045;28;20193;-68
2021/05/21 09:51:12;;;;;;;1.17;1.00;;;;;;;25.17;32.28;99821.28;5067626;28;20193;-68
2021/05/21 09:53:40;;;;;;;5.37;1.00;;;;;;;25.37;33.91;99827.47;5068670;28;20268;-67
2021/05/21 09:56:19;;;;;;;1.90;0.90;;;;;;;25.12;31.71;99821.13;5069358;28;20871;-67
2021/05/21 09:58:52;;;;;;;0.80;0.70;;;;;;;25.35;33.44;99824.09;5055918;28;20215;-67
2021/05/21 10:01:21;;;;;;;1.10;0.90;;;;;;;25.02;33.65;99827.91;5066985;28;20242;-68
2021/05/21 10:03:50;;;;;;;2.40;0.90;;;;;;;25.25;33.52;99821.03;5068475;28;20198;-67
2021/05/21 10:06:18;;;;;;;0.90;0.90;;;;;;;25.52;31.54;99822.50;5068599;28;20655;-68
2021/05/21 10:08:48;;;;;;;1.20;0.80;;;;;;;25.09;33.30;99781.16;5066167;28;20209;-67
2021/05/21 10:11:17;;;;;;;1.33;0.60;;;;;;;25.58;32.84;99816.09;5064651;28;20330;-67
2021/05/21 10:13:46;;;;;;;0.67;0.63;;;;;;;25.28;31.88;99824.16;5064314;28;20241;-73
2021/05/21 10:16:15;;;;;;;1.93;1.07;;;;;;;25.21;31.86;99823.38;5061707;28;20241;-72
2021/05/21 10:18:45;;;;;;;1.13;0.80;;;;;;;24.90;31.82;99824.16;5062297;28;20205;-72
2021/05/21 10:21:13;;;;;;;2.10;0.80;;;;;;;24.40;32.83;99815.72;5069523;28;20197;-72
2021/05/21 10:23:46;;;;;;;1.50;0.80;;;;;;;24.06;32.85;99799.53;5062742;28;20247;-72
2021/05/21 10:26:16;;;;;;;0.70;0.70;;;;;;;23.46;32.83;99807.78;5063389;28;20212;-72
2021/05/21 10:28:46;;;;;;;1.83;0.60;;;;;;;23.29;33.48;99806.53;5060642;28;20245;-72
2021/05/21 10:31:18;;;;;;;3.40;0.77;;;;;;;22.84;33.60;99786.22;5064110;28;20229;-72
2021/05/21 10:33:46;;;;;;;1.67;1.03;;;;;;;22.98;34.33;99809.88;5067362;28;20202;-72
2021/05/21 10:36:32;;;;;;;2.00;1.23;;;;;;;22.73;34.50;99808.72;5066421;28;20224;-73
2021/05/21 10:39:21;;;;;;;0.67;0.67;;;;;;;22.43;34.94;99795.31;5072265;28;20294;-75
2021/05/21 10:42:20;;;;;;;0.73;0.70;;;;;;;22.28;35.39;99791.88;5061482;28;20835;-75
2021/05/21 10:45:16;;;;;;;0.60;0.60;;;;;;;22.31;34.57;99791.47;5072424;28;20213;-74
2021/05/21 10:47:48;;;;;;;0.60;0.60;;;;;;;21.51;32.94;99789.25;5068549;28;20201;-73
2021/05/21 10:50:19;;;;;;;2.30;0.90;;;;;;;21.39;34.54;99784.31;5069502;28;20208;-73
2021/05/21 10:53:02;;;;;;;4.33;1.00;;;;;;;21.91;33.91;99780.28;5066071;28;21399;-70
2021/05/21 10:55:49;;;;;;;3.40;0.87;;;;;;;21.65;34.61;99774.66;5063969;28;21193;-70
2021/05/21 10:58:29;;;;;;;0.63;0.63;;;;;;;21.77;34.35;99786.72;5063688;28;20198;-70
2021/05/21 11:01:20;;;;;;;4.47;0.90;;;;;;;21.79;33.85;99786.53;5067429;28;20660;-73
2021/05/21 11:04:09;;;;;;;0.80;0.80;;;;;;;21.91;34.71;99772.09;5070545;28;20202;-73
2021/05/21 11:06:51;;;;;;;5.40;1.43;;;;;;;21.89;34.74;99785.13;5072142;28;20189;-74
2021/05/21 11:09:21;;;;;;;2.27;1.10;;;;;;;21.83;34.49;99775.00;5069331;28;20215;-74
2021/05/21 11:11:58;;;;;;;1.47;0.80;;;;;;;21.69;34.75;99771.31;5071219;28;20219;-74
2021/05/21 11:14:38;;;;;;;5.97;1.03;;;;;;;21.55;35.15;99782.34;5071272;28;20521;-74
2021/05/21 11:17:25;;;;;;;2.83;0.97;;;;;;;21.63;33.48;99768.53;5072633;28;20267;-76
2021/05/21 11:19:56;;;;;;;0.60;0.60;;;;;;;21.72;35.61;99771.94;5070140;28;20605;-76
2021/05/21 11:22:30;;;;;;;1.97;0.70;;;;;;;21.82;34.86;99765.09;5071160;28;20560;-68
2021/05/21 11:25:01;;;;;;;1.23;0.83;;;;;;;21.93;34.39;99767.25;5061679;28;20292;-68
2021/05/21 11:27:44;;;;;;;0.70;0.70;;;;;;;22.16;35.00;99777.09;5069710;28;20201;-68
2021/05/21 11:30:15;;;;;;;0.60;0.60;;;;;;;22.45;34.25;99760.38;5069958;28;20193;-67
2021/05/21 11:32:43;;;;;;;2.73;0.70;;;;;;;22.65;33.88;99765.91;5066198;28;20201;-67
2021/05/21 11:35:13;;;;;;;0.57;0.57;;;;;;;23.04;33.65;99759.72;5067640;28;20203;-70
2021/05/21 11:37:41;;;;;;;1.87;1.00;;;;;;;23.16;33.22;99755.28;5070034;28;20204;-74
2021/05/21 11:40:11;;;;;;;2.53;0.80;;;;;;;22.98;32.40;99704.94;5070398;28;20293;-74
2021/05/21 11:42:38;;;;;;;0.40;0.40;;;;;;;23.44;31.66;99760.56;5064490;28;20196;-74